Date,TemperatureHighF,TemperatureAvgF,TemperatureLowF,DewpointHighF,DewpointAvgF,DewpointLowF,HumidityHigh,HumidityAvg,HumidityLow,PressureMaxIn,PressureMinIn,WindSpeedMaxMPH,WindSpeedAvgMPH,GustSpeedMaxMPH,PrecipitationSumIn
2013-1-1,32.7,21.1,23.3,30.0,-10.2,-99.9,93,60,72,30.13,30.01,6,-279,10,0.01
2013-1-2,27.6,22.7,18.6,17.0,13.5,-99.9,84,70,56,30.29,30.11,7,-8,16,0.00
2013-1-3,34.6,23.6,11.2,21.0,16.1,9.0,91,75,54,30.29,30.17,14,4,20,0.00
2013-1-4,32.7,18.6,28.4,25.0,-23.5,-99.9,86,46,60,30.29,30.18,16,-366,23,0.00
2013-1-5,34.4,17.5,27.4,27.0,-29.9,-99.9,78,42,66,30.43,30.18,8,-430,15,0.00
2013-1-6,39.1,36.0,33.3,32.0,28.1,25.0,84,73,66,30.23,30.02,7,2,11,0.00
2013-1-7,35.1,31.6,24.3,29.0,25.7,22.0,90,79,66,30.49,30.24,8,3,13,0.00
2013-1-8,45.3,29.0,19.4,30.0,23.9,17.0,93,83,51,30.41,30.30,6,1,12,0.00
2013-1-9,47.6,29.8,23.9,40.0,12.4,-99.9,93,73,65,30.51,30.26,13,-133,23,0.01
2013-1-10,40.3,34.0,27.1,30.0,28.4,26.0,95,81,64,30.65,30.33,9,2,9,0.00
2013-1-11,51.5,33.2,35.8,51.0,12.1,-99.9,98,71,70,30.32,29.98,8,-176,8,0.23
2013-1-12,-200.0,0.0,200.0,-99.9,-99.9,-99.9,0,0,100,30.10,29.95,0,-999,0,0.00
2013-1-13,69.5,42.7,41.5,56.0,10.8,-99.9,98,59,60,29.95,29.84,7,-272,16,0.09
2013-1-14,36.1,9.3,31.7,26.0,-65.0,-99.9,74,20,66,30.38,29.87,5,-718,9,0.00
2013-1-15,33.3,30.3,25.8,28.0,23.2,21.0,87,75,67,30.44,30.12,6,1,9,0.00
2013-1-16,35.5,33.3,30.7,33.0,30.6,28.0,95,89,82,30.11,29.93,10,3,15,0.22
2013-1-17,35.3,34.0,32.9,30.0,28.3,27.0,86,80,75,30.21,30.05,10,4,16,0.01
2013-1-18,33.3,27.7,20.1,27.0,14.9,9.0,86,59,48,30.55,30.19,17,4,24,0.00
2013-1-19,53.7,43.5,31.0,24.0,19.2,14.0,58,39,25,30.29,29.84,14,4,22,0.00
2013-1-20,48.0,36.6,24.5,31.0,19.9,13.0,63,52,39,30.17,29.78,18,8,29,0.00
2013-1-21,25.7,22.3,13.9,21.0,13.7,5.0,86,70,60,30.14,29.95,14,6,24,0.00
2013-1-22,14.0,11.0,8.7,7.0,2.2,-2.0,76,68,56,30.35,30.11,18,10,24,0.00
2013-1-23,16.5,12.5,7.6,11.0,3.2,0.0,83,67,50,30.38,30.14,11,5,17,0.00
2013-1-24,22.3,16.4,12.4,12.0,6.1,-3.0,87,66,34,30.61,30.13,13,3,17,0.00
2013-1-25,19.4,15.8,12.5,16.0,9.9,3.0,88,78,60,30.59,30.09,8,3,12,0.00
2013-1-26,27.6,23.3,17.0,22.0,18.0,14.0,88,80,68,30.50,30.15,10,4,12,0.00
2013-1-27,31.5,22.4,10.5,22.0,15.2,8.0,90,75,54,30.61,30.38,8,2,8,0.01
2013-1-28,48.1,36.3,28.7,47.0,33.9,22.0,97,91,71,30.36,30.04,5,2,7,0.04
2013-1-29,64.8,48.9,40.3,55.0,46.4,39.0,98,92,67,30.07,29.79,8,1,14,0.00
2013-1-30,67.3,48.5,40.0,56.0,31.4,-99.9,98,73,62,29.80,29.23,16,-122,30,0.91
2013-1-31,50.0,24.5,24.0,45.0,1.7,-99.9,90,60,54,29.88,29.22,27,-147,33,0.02
2013-2-1,24.3,17.3,12.5,20.0,8.9,4.0,84,70,61,30.41,29.86,17,9,23,0.00
2013-2-2,25.3,18.2,10.5,22.0,12.9,4.0,89,80,71,30.39,30.03,8,3,18,0.00
2013-2-3,25.4,23.8,19.5,22.0,19.1,13.0,88,82,65,30.08,29.87,14,5,24,0.00
2013-2-4,26.5,22.8,19.1,24.0,17.6,11.0,92,81,68,30.12,29.91,12,4,17,0.00
2013-2-5,32.4,28.9,26.6,29.0,26.0,24.0,93,89,76,29.98,29.86,9,2,14,0.00
2013-2-6,34.6,28.5,19.6,27.0,22.4,16.0,92,79,52,30.38,29.98,9,3,14,0.00
2013-2-7,42.9,29.8,17.7,29.0,22.6,15.0,89,76,56,30.36,30.02,10,4,12,0.06
2013-2-8,38.5,31.7,27.3,37.0,27.6,21.0,94,85,76,30.19,29.83,14,5,25,0.16
2013-2-9,34.9,26.4,21.5,22.0,18.1,15.0,85,72,47,30.44,30.20,13,4,26,0.00
2013-2-10,47.1,31.5,17.8,27.0,21.0,15.0,90,68,39,30.41,29.99,8,3,10,0.00
2013-2-11,59.5,45.3,35.5,47.0,33.9,24.0,97,68,32,29.98,29.66,23,7,36,0.08
2013-2-12,41.8,35.4,28.1,28.0,25.5,24.0,87,68,54,30.09,29.94,16,6,19,0.00
2013-2-13,39.0,30.6,23.9,32.0,26.6,22.0,95,86,65,29.95,29.71,7,2,9,0.02
2013-2-14,42.7,35.6,29.6,35.0,29.6,25.0,89,79,65,29.99,29.89,8,2,14,0.09
2013-2-15,40.7,36.0,27.3,35.0,27.9,22.0,93,73,56,30.09,29.93,10,4,16,0.00
2013-2-16,29.2,26.0,21.8,22.0,18.3,14.0,84,73,53,30.09,29.96,8,2,13,0.00
2013-2-17,23.4,20.4,17.6,20.0,12.8,6.0,91,73,54,30.31,29.96,16,6,22,0.00
2013-2-18,43.6,25.4,10.5,29.0,15.5,7.0,89,68,40,30.37,29.93,9,2,12,0.00
2013-2-19,44.3,35.3,25.2,39.0,28.8,15.0,89,77,62,29.98,29.69,21,8,29,0.13
2013-2-20,24.8,20.9,18.8,17.0,13.8,9.0,87,74,59,30.27,29.98,22,10,26,0.00
2013-2-21,25.8,22.0,19.9,17.0,14.9,13.0,86,74,61,30.41,30.24,11,5,14,0.00
2013-2-22,35.2,30.4,21.2,32.0,24.9,15.0,93,80,59,30.33,30.03,8,3,12,0.01
2013-2-23,42.9,35.0,28.5,36.0,31.3,27.0,94,86,72,30.04,29.88,8,2,8,0.00
2013-2-24,31.4,29.8,26.7,27.0,24.1,21.0,95,80,66,30.18,29.89,12,4,16,0.00
2013-2-25,43.1,32.0,23.4,27.0,23.8,22.0,92,74,46,30.28,30.09,7,2,12,0.00
2013-2-26,40.9,34.6,27.6,35.0,28.8,23.0,94,80,52,30.11,29.61,10,4,17,0.80
2013-2-27,42.7,39.1,35.0,38.0,35.3,31.0,96,86,73,29.69,29.57,9,4,19,0.30
2013-2-28,35.3,34.2,32.9,32.0,30.4,28.0,92,86,78,29.83,29.64,9,5,15,0.07
2013-3-1,33.0,30.3,26.3,30.0,25.1,20.0,88,81,74,30.01,29.83,10,4,14,0.00
2013-3-2,28.6,26.6,24.7,24.0,21.2,19.0,87,80,71,30.00,29.95,8,3,12,0.00
2013-3-3,27.9,26.2,24.0,24.0,20.5,18.0,89,79,70,30.05,29.96,14,6,15,0.00
2013-3-4,37.6,28.4,22.9,23.0,19.1,16.0,85,69,49,30.17,30.05,11,4,17,0.00
2013-3-5,45.8,32.6,20.5,26.0,19.0,13.0,88,62,28,30.14,29.72,16,3,24,0.00
2013-3-6,41.1,35.4,31.6,33.0,30.1,27.0,96,82,59,30.13,29.72,10,2,15,0.38
2013-3-7,40.6,35.9,33.7,32.0,29.5,27.0,87,78,59,30.32,30.12,10,4,16,0.01
2013-3-8,38.8,33.6,28.7,29.0,27.1,25.0,90,77,64,30.44,30.32,10,4,16,0.00
2013-3-9,52.3,36.0,24.1,32.0,27.0,22.0,93,73,36,30.45,30.21,5,2,7,0.00
2013-3-10,69.2,49.7,34.2,35.0,31.5,29.0,84,56,23,30.21,29.99,13,4,18,0.00
2013-3-11,63.7,53.4,43.5,48.0,36.2,30.0,88,55,29,30.01,29.69,19,4,26,0.07
2013-3-12,47.3,40.5,36.8,44.0,33.7,28.0,88,77,66,30.01,29.78,14,7,19,0.11
2013-3-13,36.9,32.5,29.2,30.0,24.7,-99.9,92,75,60,30.16,29.94,18,-3,28,0.01
2013-3-14,37.8,30.9,26.1,22.0,19.7,18.0,74,64,44,30.25,30.16,17,8,23,0.00
2013-3-15,48.7,38.0,26.9,36.0,27.5,20.0,86,67,52,30.17,29.83,20,4,25,0.00
2013-3-16,39.5,35.9,33.6,37.0,33.3,30.0,94,90,86,29.99,29.67,7,2,10,0.06
2013-3-17,36.5,32.5,29.1,30.0,23.8,21.0,87,71,56,30.23,29.99,6,2,12,0.00
2013-3-18,38.7,34.4,30.4,36.0,29.2,22.0,92,81,67,30.20,29.72,12,4,19,0.37
2013-3-19,42.7,37.6,32.0,40.0,26.2,17.0,96,65,39,29.99,29.71,24,10,38,0.02
2013-3-20,36.7,32.0,27.9,23.0,18.6,15.0,68,58,45,30.00,29.85,14,7,24,0.00
2013-3-21,28.3,24.8,20.5,22.0,14.5,7.0,86,66,49,29.95,29.89,15,8,19,0.00
2013-3-22,33.2,29.0,25.8,22.0,20.0,18.0,81,70,58,30.06,29.93,14,7,19,0.00
2013-3-23,45.4,33.7,22.8,24.0,22.0,20.0,90,65,40,30.08,30.01,10,2,16,0.00
2013-3-24,43.9,33.7,26.9,30.0,23.1,21.0,85,67,42,30.03,29.57,16,4,25,0.00
2013-3-25,36.3,33.2,31.1,34.0,31.5,29.0,96,93,84,29.77,29.48,8,2,13,0.58
2013-3-26,41.1,35.9,32.8,32.0,31.2,30.0,93,83,67,30.10,29.77,14,5,17,0.13
2013-3-27,41.9,36.5,32.9,33.0,30.1,24.0,93,79,51,30.18,30.08,12,6,19,0.06
2013-3-28,42.3,38.5,34.9,33.0,30.7,29.0,87,74,60,30.29,30.15,13,5,15,0.00
2013-3-29,51.5,42.6,35.9,33.0,28.5,22.0,87,61,33,30.30,30.17,10,2,15,0.00
2013-3-30,55.2,40.5,27.6,31.0,24.6,19.0,90,59,26,30.29,30.05,9,1,15,0.00
2013-3-31,49.2,43.6,36.6,45.0,37.7,28.0,90,79,66,30.04,29.74,6,2,8,0.08
2013-4-1,47.6,41.5,33.4,43.0,29.0,14.0,87,64,33,30.04,29.72,13,6,21,0.03
2013-4-2,39.0,32.8,27.2,21.0,16.6,12.0,74,53,37,30.22,30.04,13,5,23,0.00
2013-4-3,38.4,32.1,26.4,23.0,16.2,10.0,73,54,31,30.45,30.21,17,4,23,0.00
2013-4-4,54.2,36.4,20.8,31.0,16.7,7.0,82,52,16,30.44,30.00,9,2,12,0.00
2013-4-5,52.9,41.2,30.1,31.0,25.6,20.0,85,57,31,30.21,29.96,20,3,21,0.00
2013-4-6,58.5,41.4,26.7,29.0,19.1,9.0,81,48,14,30.33,30.05,9,2,14,0.00
2013-4-7,70.6,61.8,47.8,46.0,36.8,22.0,55,40,35,30.04,29.86,19,5,24,0.00
2013-4-8,73.9,60.4,46.5,49.0,44.1,41.0,82,58,37,30.04,29.87,16,4,23,0.00
2013-4-9,78.7,66.8,51.4,55.0,51.6,46.0,94,61,41,30.09,29.87,9,2,15,0.00
2013-4-10,77.7,67.4,56.5,63.0,56.3,51.0,96,69,52,29.93,29.76,15,3,27,0.77
2013-4-11,74.5,62.8,53.3,59.0,56.0,50.0,98,80,56,29.88,29.60,10,2,13,0.02
2013-4-12,63.9,56.4,46.2,60.0,49.3,35.0,97,78,57,29.86,29.49,19,7,28,0.53
2013-4-13,51.6,46.6,42.2,37.0,34.3,32.0,75,63,50,30.04,29.86,15,7,28,0.00
2013-4-14,61.7,48.6,34.5,40.0,32.3,27.0,86,56,35,30.19,30.03,8,2,13,0.00
2013-4-15,65.9,59.3,51.2,49.0,43.0,-99.9,73,57,47,30.09,29.99,15,-7,23,0.00
2013-4-16,74.9,55.2,49.6,60.0,34.0,-99.9,95,64,52,30.19,30.01,12,-126,25,0.72
2013-4-17,67.9,58.5,51.4,56.0,51.3,47.0,97,78,58,30.25,30.09,9,2,11,0.00
2013-4-18,84.8,72.5,55.4,59.0,56.3,53.0,93,60,38,30.11,29.75,11,4,26,0.00
2013-4-19,73.1,60.9,46.0,60.0,47.7,30.0,83,63,51,29.85,29.46,22,7,29,0.17
2013-4-20,45.9,42.3,37.1,33.0,27.7,23.0,81,57,45,30.43,29.86,18,9,26,0.00
2013-4-21,53.2,41.3,29.4,32.0,23.8,17.0,84,54,27,30.64,30.44,13,3,15,0.00
2013-4-22,61.3,50.5,40.6,33.0,28.7,22.0,70,46,23,30.50,30.29,17,6,18,0.00
2013-4-23,69.6,54.8,39.3,43.0,35.3,32.0,80,52,26,30.30,29.96,7,2,21,0.00
2013-4-24,69.7,54.9,42.1,56.0,43.6,-99.9,88,69,49,30.18,29.74,21,-5,34,0.33
2013-4-25,55.9,21.3,44.5,41.0,-45.1,-99.9,86,22,35,30.37,30.18,15,-586,21,0.01
2013-4-26,64.4,48.1,37.4,41.0,33.9,24.0,96,64,23,30.50,30.37,5,1,8,0.01
2013-4-27,72.9,55.6,36.9,45.0,35.9,29.0,88,54,22,30.41,30.16,10,4,16,0.00
2013-4-28,61.2,56.1,49.9,53.0,47.7,40.0,87,74,46,30.16,29.94,14,4,16,0.19
2013-4-29,63.9,57.3,52.6,57.0,52.8,48.0,95,85,73,30.02,29.94,6,1,13,0.09
2013-4-30,70.8,60.4,51.4,55.0,50.6,-99.9,97,74,52,30.19,30.03,15,-6,18,0.00
2013-5-1,75.1,40.6,61.5,50.0,-13.6,-99.9,63,27,30,30.30,30.19,15,-402,19,0.00
2013-5-2,76.6,62.2,47.5,45.0,38.8,28.0,80,47,19,30.36,30.19,15,4,21,0.00
2013-5-3,72.4,61.1,46.7,49.0,42.0,31.0,83,53,26,30.26,30.15,18,7,25,0.00
2013-5-4,70.5,57.4,48.4,49.0,36.2,-99.9,75,52,33,30.21,30.07,15,-36,24,0.00
2013-5-5,72.7,60.2,46.0,47.0,36.0,22.0,88,48,16,30.15,30.01,20,6,22,0.00
2013-5-6,68.9,59.7,47.5,55.0,46.6,36.0,79,63,45,30.09,29.99,18,5,22,0.00
2013-5-7,70.3,62.4,57.5,58.0,54.8,52.0,90,77,55,30.02,29.95,12,3,19,0.04
2013-5-8,73.5,63.9,54.5,57.0,51.4,44.0,94,67,35,29.99,29.87,8,2,11,0.18
2013-5-9,78.1,64.3,55.6,58.0,53.8,46.0,93,72,33,29.98,29.89,7,2,14,0.00
2013-5-10,76.3,62.7,57.2,62.0,55.9,-99.9,92,81,58,29.99,29.79,12,-8,22,0.42
2013-5-11,62.4,58.0,53.4,60.0,53.6,48.0,94,85,75,29.83,29.75,9,4,13,0.16
2013-5-12,54.5,48.8,40.2,49.0,34.1,29.0,85,59,41,30.06,29.82,17,8,25,0.00
2013-5-13,52.2,44.7,36.6,35.0,28.3,23.0,86,55,33,30.20,30.06,14,4,19,0.00
2013-5-14,61.3,48.1,32.6,43.0,35.1,30.0,91,64,40,30.22,29.91,10,3,17,0.00
2013-5-15,84.1,66.7,50.6,61.0,53.3,42.0,88,64,42,29.91,29.69,21,4,24,0.00
2013-5-16,78.5,68.9,60.9,62.0,55.1,45.0,92,66,32,29.95,29.75,10,3,15,0.35
2013-5-17,80.5,65.8,53.6,60.0,54.6,50.0,92,70,35,30.10,29.96,7,2,10,0.00
2013-5-18,81.6,67.6,55.6,61.0,55.1,50.0,82,66,41,30.13,30.00,9,3,15,0.00
2013-5-19,75.8,68.2,59.3,64.0,60.3,57.0,92,77,63,30.09,29.95,13,4,14,0.00
2013-5-20,84.8,72.7,61.3,67.0,63.8,59.0,94,75,54,30.02,29.87,9,2,12,0.00
2013-5-21,86.5,76.7,65.9,68.0,65.5,60.0,96,71,48,29.94,29.78,12,3,18,0.00
2013-5-22,85.7,74.2,68.1,65.0,62.2,60.0,79,67,45,29.86,29.73,14,3,20,0.00
2013-5-23,74.8,65.3,51.3,64.0,60.8,49.0,93,86,59,29.89,29.75,11,3,19,1.20
2013-5-24,50.8,46.1,42.8,48.0,38.4,31.0,91,75,58,30.30,29.89,14,5,19,0.03
2013-5-25,61.5,49.4,36.4,39.0,34.9,32.0,90,61,34,30.34,30.23,14,4,23,0.00
2013-5-26,67.2,48.4,40.6,43.0,23.5,-99.9,83,50,29,30.31,30.21,11,-92,15,0.00
2013-5-27,63.2,51.3,41.9,49.0,33.0,-99.9,90,62,41,30.29,30.11,7,-71,12,0.00
2013-5-28,79.6,55.6,54.5,65.0,36.9,-99.9,95,71,56,30.10,29.97,9,-134,20,0.32
2013-5-29,85.1,76.0,67.4,63.0,61.3,59.0,81,62,43,30.06,29.98,12,4,18,0.00
2013-5-30,87.4,74.6,62.3,66.0,62.9,58.0,93,70,39,30.16,30.05,8,2,14,0.00
2013-5-31,87.7,75.9,64.2,66.0,63.7,61.0,95,69,42,30.10,29.95,14,2,17,0.00
2013-6-1,85.5,70.6,68.8,67.0,49.4,-99.9,88,60,51,29.99,29.78,12,-90,19,0.07
2013-6-2,79.5,59.4,68.4,67.0,28.6,-99.9,88,52,49,29.84,29.76,17,-204,25,0.02
2013-6-3,69.7,63.8,54.7,59.0,52.2,40.0,82,67,46,30.07,29.84,11,2,12,0.00
2013-6-4,73.5,60.6,45.2,53.0,45.1,40.0,90,60,36,30.17,30.07,8,1,13,0.00
2013-6-5,80.9,67.2,52.7,64.0,54.0,47.0,86,65,48,30.14,29.91,12,2,18,0.00
2013-6-6,71.1,66.6,63.8,65.0,62.9,59.0,95,88,69,29.92,29.75,12,1,21,1.22
2013-6-7,66.8,63.5,60.1,63.0,60.4,55.0,96,89,80,29.84,29.73,11,3,12,0.00
2013-6-8,72.2,63.4,57.9,59.0,54.9,53.0,89,75,55,30.10,29.85,7,2,12,0.00
2013-6-9,82.0,69.4,57.1,66.0,59.5,55.0,93,73,50,30.16,29.99,9,3,11,0.00
2013-6-10,74.6,70.3,66.9,70.0,66.4,63.0,96,87,76,30.00,29.75,9,2,14,0.47
2013-6-11,76.8,69.7,63.8,65.0,63.3,61.0,92,80,60,29.86,29.77,14,4,17,0.03
2013-6-12,81.3,72.5,63.3,70.0,65.4,62.0,96,80,54,29.89,29.72,8,2,14,0.00
2013-6-13,74.5,68.0,62.5,72.0,62.8,56.0,95,83,69,29.77,29.51,19,5,25,0.79
2013-6-14,74.2,64.1,57.6,59.0,56.1,54.0,89,77,52,30.04,29.77,8,2,14,0.00
2013-6-15,77.8,66.6,54.0,60.0,52.7,42.0,96,66,31,30.13,29.98,7,2,14,0.00
2013-6-16,74.7,68.9,63.1,67.0,63.6,59.0,92,83,74,30.00,29.88,13,3,17,0.40
2013-6-17,82.5,74.0,67.6,66.0,62.2,54.0,91,70,38,29.96,29.86,6,2,11,0.00
2013-6-18,77.7,69.0,63.8,67.0,62.7,60.0,94,81,61,29.93,29.82,7,1,7,0.28
2013-6-19,76.6,66.3,57.0,60.0,51.5,43.0,85,62,31,30.13,29.94,7,2,10,0.00
2013-6-20,81.9,67.3,52.4,62.0,53.1,46.0,92,65,32,30.22,30.14,6,1,8,0.00
2013-6-21,86.2,70.9,57.0,64.0,58.0,53.0,92,67,35,30.24,30.12,5,2,8,0.00
2013-6-22,87.1,74.5,61.9,69.0,62.8,-99.9,93,71,50,30.18,30.03,10,-8,12,0.00
2013-6-23,87.6,53.2,73.1,70.0,7.9,-99.9,86,39,44,30.12,30.00,10,-352,16,0.00
2013-6-24,87.2,78.6,68.4,69.0,66.6,64.0,94,69,46,30.11,29.96,10,3,12,0.00
2013-6-25,88.5,64.6,67.8,69.0,36.0,-99.9,84,55,49,30.02,29.83,14,-184,21,0.64
2013-6-26,82.6,28.1,72.8,70.0,-40.3,-99.9,90,25,60,29.96,29.77,6,-644,9,0.00
2013-6-27,76.0,58.3,68.8,70.0,35.8,-99.9,94,70,77,29.77,29.60,8,-191,16,0.49
2013-6-28,78.6,70.1,65.5,69.0,65.9,63.0,96,87,68,29.63,29.46,11,2,25,0.29
2013-6-29,80.1,71.0,64.2,65.0,62.8,61.0,94,76,54,29.68,29.53,11,3,16,0.00
2013-6-30,81.5,70.0,62.6,68.0,64.8,62.0,97,85,57,29.83,29.67,16,2,23,0.76
2013-7-1,77.7,70.9,66.4,68.0,66.2,65.0,96,86,69,29.93,29.80,7,1,12,0.11
2013-7-2,83.6,74.2,66.8,70.0,68.1,66.0,97,82,59,30.03,29.91,5,1,10,0.11
2013-7-3,79.2,39.0,67.9,69.0,-8.3,-99.9,96,48,64,30.14,30.03,6,-452,7,0.00
2013-7-4,85.4,76.0,69.4,71.0,68.4,65.0,97,79,51,30.20,30.09,12,2,18,0.16
2013-7-5,84.4,76.5,68.5,71.0,68.3,66.0,97,78,56,30.14,30.06,13,3,16,0.00
2013-7-6,89.0,77.2,70.0,72.0,69.9,68.0,97,80,50,30.15,29.98,6,1,10,0.14
2013-7-7,79.2,75.2,71.8,71.0,68.7,67.0,88,80,71,30.08,29.97,8,3,12,0.07
2013-7-8,81.9,54.1,67.7,68.0,22.8,-99.9,93,58,60,30.11,30.01,10,-257,12,0.00
2013-7-9,70.7,16.9,69.1,68.0,-59.3,-99.9,94,23,92,30.09,29.94,6,-757,6,0.73
2013-7-10,85.8,73.0,67.3,77.0,69.9,66.0,95,90,70,29.99,29.78,8,2,17,1.83
2013-7-11,77.9,63.9,64.8,66.0,45.0,-99.9,96,69,51,29.98,29.87,5,-92,8,0.00
2013-7-12,76.7,50.9,60.2,66.0,21.3,-99.9,90,62,61,30.10,29.98,8,-232,11,0.00
2013-7-13,81.6,73.4,63.9,70.0,65.5,61.0,90,77,63,30.20,30.09,6,2,11,0.00
2013-7-14,89.3,78.0,69.1,72.0,66.6,-99.9,95,72,48,30.27,30.19,9,-8,15,0.00
2013-7-15,-200.0,0.0,200.0,-99.9,-99.9,-99.9,0,0,100,30.31,30.20,0,-999,0,0.00
2013-7-16,74.7,14.8,73.6,73.0,-65.3,-99.9,97,19,95,30.32,30.23,3,-799,3,0.00
2013-7-17,91.7,79.1,72.0,77.0,74.1,71.0,98,86,57,30.28,30.13,8,1,12,0.01
2013-7-18,86.3,43.1,73.5,77.0,-2.6,-99.9,97,51,71,30.15,29.99,2,-441,4,0.00
2013-7-19,90.3,81.0,74.3,76.0,73.1,70.0,95,78,52,30.00,29.83,12,3,28,0.02
2013-7-20,82.4,77.0,71.9,72.0,69.9,68.0,91,79,64,29.89,29.81,10,4,18,0.26
2013-7-21,83.5,74.9,69.9,73.0,69.1,66.0,94,83,64,29.94,29.87,10,2,11,0.17
2013-7-22,80.9,72.1,66.9,73.0,69.3,66.0,96,91,76,29.93,29.75,17,1,22,0.78
2013-7-23,83.1,72.8,67.3,69.0,67.4,64.0,95,84,59,29.76,29.67,8,4,15,0.12
2013-7-24,72.8,67.5,61.7,66.0,57.5,53.0,93,72,54,29.98,29.74,7,2,13,0.01
2013-7-25,76.9,65.8,55.8,60.0,53.5,50.0,87,67,42,30.07,29.98,7,2,11,0.00
2013-7-26,81.2,68.0,57.2,62.0,55.4,-99.9,95,69,41,30.10,29.97,7,-10,11,0.00
2013-7-27,68.9,26.5,62.1,63.0,-33.3,-99.9,92,37,81,29.98,29.83,3,-584,5,0.00
2013-7-28,74.8,66.8,62.4,66.0,55.4,-99.9,97,74,53,30.02,29.84,12,-29,18,0.11
2013-7-29,73.9,65.0,56.3,58.0,55.5,52.0,93,73,49,30.18,30.02,10,3,15,0.00
2013-7-30,78.6,67.7,56.3,63.0,57.6,55.0,95,73,44,30.23,30.13,7,1,8,0.00
2013-7-31,77.8,68.5,60.2,67.0,62.5,59.0,94,82,55,30.15,29.94,6,2,9,0.02
2013-8-1,80.3,63.4,67.0,67.0,42.6,-99.9,93,68,51,29.94,29.83,8,-112,12,0.09
2013-8-2,75.7,28.1,61.8,64.0,-30.7,-99.9,95,37,44,29.97,29.88,9,-569,16,0.00
2013-8-3,78.4,22.7,61.8,67.0,-48.8,-99.9,88,22,48,29.98,29.90,5,-680,10,0.00
2013-8-4,74.2,54.9,57.3,60.0,33.3,-99.9,94,66,49,30.08,29.97,7,-146,14,0.01
2013-8-5,73.9,64.9,55.2,59.0,54.8,50.0,95,73,43,30.13,30.01,6,1,11,0.00
2013-8-6,81.9,68.9,58.4,64.0,57.7,53.0,93,71,42,30.03,29.95,10,2,12,0.00
2013-8-7,84.0,71.2,63.0,72.0,65.4,61.0,93,83,62,29.97,29.89,7,2,15,0.02
2013-8-8,84.7,63.2,67.4,74.0,42.3,-99.9,95,72,66,29.96,29.86,9,-148,12,0.00
2013-8-9,78.1,56.2,68.2,73.0,25.8,-99.9,94,63,75,29.99,29.86,11,-248,13,0.04
2013-8-10,81.1,72.5,64.5,67.0,63.9,62.0,94,76,53,30.07,30.00,9,1,10,0.01
2013-8-11,82.5,57.5,64.0,70.0,30.7,-99.9,87,58,55,30.12,29.99,7,-189,9,0.00
2013-8-12,78.0,35.8,65.3,69.0,-15.2,-99.9,94,44,58,30.04,29.86,5,-489,9,0.00
2013-8-13,78.4,42.2,59.4,68.0,-8.0,-99.9,85,38,54,29.97,29.77,10,-408,17,0.00
2013-8-14,69.1,60.5,53.9,56.0,51.8,49.0,87,74,52,30.14,29.97,10,2,13,0.00
2013-8-15,74.3,61.9,51.0,57.0,51.5,47.0,95,72,40,30.20,30.09,5,1,7,0.01
2013-8-16,78.3,66.1,54.6,61.0,55.1,52.0,91,71,42,30.16,30.11,10,2,12,0.00
2013-8-17,77.5,67.2,57.2,62.0,57.3,52.0,93,73,42,30.25,30.16,12,4,15,0.00
2013-8-18,73.0,63.3,63.4,66.0,51.9,-99.9,94,78,71,30.21,30.12,7,-60,9,0.02
2013-8-19,79.7,70.4,65.3,68.0,65.5,63.0,96,85,61,30.14,30.04,5,1,7,0.27
2013-8-20,82.9,70.3,60.3,68.0,62.6,58.0,97,79,43,30.18,30.09,3,1,6,0.01
2013-8-21,85.4,71.9,60.9,69.0,61.9,-99.9,97,75,41,30.19,30.03,5,-9,9,0.00
2013-8-22,82.4,63.5,67.7,71.0,43.5,-99.9,94,69,60,30.08,29.94,8,-144,19,0.56
2013-8-23,82.9,72.7,68.0,68.0,63.7,56.0,96,76,44,30.13,29.97,8,2,9,0.02
2013-8-24,81.2,69.8,59.4,64.0,59.1,56.0,90,70,44,30.28,30.13,10,2,10,0.00
2013-8-25,82.8,71.0,58.8,64.0,60.2,56.0,94,72,41,30.36,30.21,9,2,12,0.00
2013-8-26,83.8,74.5,63.4,69.0,63.7,60.0,92,71,49,30.23,29.99,16,4,17,0.00
2013-8-27,81.0,76.5,72.6,74.0,70.0,68.0,90,80,70,30.00,29.90,9,3,18,0.10
2013-8-28,78.1,64.0,70.0,74.0,49.1,-99.9,96,80,81,29.91,29.79,12,-126,18,0.87
2013-8-29,80.2,71.8,68.6,70.0,68.8,68.0,97,90,69,30.01,29.89,4,1,7,0.00